createdAt,value
2023-03-05T00:01:53.348Z,97052.66
2023-03-05T00:06:00.681Z,97053.72
2023-03-05T00:10:03.008Z,97042.88
2023-03-05T00:14:07.563Z,97047.66
2023-03-05T00:18:08.258Z,97046.94
2023-03-05T00:22:08.902Z,97047.56
2023-03-05T00:26:10.162Z,97055.81
2023-03-05T00:30:16.760Z,97049.44
2023-03-05T00:34:20.550Z,97042.41
2023-03-05T00:38:20.920Z,97039.59
2023-03-05T00:42:21.468Z,97041.31
2023-03-05T00:46:27.630Z,97030.13
2023-03-05T00:50:28.145Z,97030.59
2023-03-05T00:54:28.896Z,97031.25
2023-03-05T00:58:30.020Z,97031.31
2023-03-05T01:02:34.799Z,97022.81
2023-03-05T01:06:35.418Z,97023.16
2023-03-05T01:10:35.978Z,97011.78
2023-03-05T01:14:36.918Z,97008.75
2023-03-05T01:18:41.737Z,97013.91
2023-03-05T01:22:42.718Z,97002.63
2023-03-05T01:26:43.474Z,96996.50
2023-03-05T01:30:43.882Z,96997.66
2023-03-05T01:34:47.821Z,96998.66
2023-03-05T01:38:50.781Z,96980.81
2023-03-05T01:42:52.831Z,96992.69
2023-03-05T01:46:53.703Z,96985.75
2023-03-05T01:50:57.520Z,96980.81
2023-03-05T01:55:04.454Z,96977.91
2023-03-05T01:59:06.504Z,96966.81
2023-03-05T02:03:12.705Z,96980.81
2023-03-05T02:07:17.534Z,96973.03
2023-03-05T02:11:18.314Z,96968.97
2023-03-05T02:15:20.577Z,96971.25
2023-03-05T02:19:21.339Z,96967.00
2023-03-05T02:23:27.428Z,96961.75
2023-03-05T02:27:38.319Z,96954.47
2023-03-05T02:31:39.205Z,96944.81
2023-03-05T02:35:40.387Z,96947.78
2023-03-05T02:39:43.650Z,96947.06
2023-03-05T02:43:44.478Z,96942.94
2023-03-05T02:47:45.939Z,96940.84
2023-03-05T02:51:46.389Z,96929.47
2023-03-05T02:55:50.318Z,96929.72
2023-03-05T02:59:51.143Z,96922.50
2023-03-05T03:03:51.432Z,96922.59
2023-03-05T03:07:52.011Z,96920.78
2023-03-05T03:11:55.001Z,96916.28
2023-03-05T03:16:05.854Z,96904.81
2023-03-05T03:20:08.663Z,96904.63
2023-03-05T03:24:09.844Z,96906.72
2023-03-05T03:28:13.087Z,96908.44
2023-03-05T03:32:13.773Z,96907.28
2023-03-05T03:36:15.491Z,96898.34
2023-03-05T03:40:16.623Z,96905.00
2023-03-05T03:44:21.869Z,96902.16
2023-03-05T03:48:22.163Z,96897.63
2023-03-05T03:52:23.240Z,96895.41
2023-03-05T03:56:23.836Z,96896.53
2023-03-05T04:00:27.523Z,96900.88
2023-03-05T04:04:29.424Z,96888.06
2023-03-05T04:08:30.529Z,96886.81
2023-03-05T04:12:31.020Z,96882.31
2023-03-05T04:16:34.761Z,96887.16
2023-03-05T04:20:35.205Z,96882.75
2023-03-05T04:24:35.758Z,96869.88
2023-03-05T04:28:36.701Z,96877.59
2023-03-05T04:32:40.076Z,96874.19
2023-03-05T04:36:40.559Z,96876.34
2023-03-05T04:40:41.686Z,96873.19
2023-03-05T04:44:42.271Z,96875.19
2023-03-05T04:48:47.830Z,96873.81
2023-03-05T04:52:49.378Z,96864.91
2023-03-05T04:56:50.287Z,96858.31
2023-03-05T05:00:50.715Z,96862.44
2023-03-05T05:04:56.888Z,96860.84
2023-03-05T05:08:57.717Z,96863.53
2023-03-05T05:12:58.911Z,96861.59
2023-03-05T05:17:00.127Z,96869.50
2023-03-05T05:21:03.613Z,96863.44
2023-03-05T05:25:05.323Z,96848.59
2023-03-05T05:29:06.160Z,96861.94
2023-03-05T05:33:07.058Z,96848.22
2023-03-05T05:37:10.578Z,96857.59
2023-03-05T05:41:14.303Z,96857.97
2023-03-05T05:45:17.669Z,96858.59
2023-03-05T05:49:18.184Z,96866.53
2023-03-05T05:53:21.146Z,96859.22
2023-03-05T05:57:21.655Z,96872.91
2023-03-05T06:01:26.447Z,96871.66
2023-03-05T06:05:27.255Z,96858.03
2023-03-05T06:09:30.963Z,96864.25
2023-03-05T06:13:31.532Z,96865.06
2023-03-05T06:17:32.564Z,96865.06
2023-03-05T06:21:33.999Z,96873.72
2023-03-05T06:25:37.300Z,96869.31
2023-03-05T06:29:37.642Z,96867.59
2023-03-05T06:33:39.630Z,96871.94
2023-03-05T06:37:40.053Z,96867.78
2023-03-05T06:41:44.849Z,96869.47
2023-03-05T06:45:45.587Z,96870.75
2023-03-05T06:49:46.028Z,96869.94
2023-03-05T06:53:49.290Z,96869.28
2023-03-05T06:57:52.815Z,96869.66
2023-03-05T07:01:53.645Z,96841.09
2023-03-05T07:05:54.240Z,96870.19
2023-03-05T07:09:54.942Z,96862.06
2023-03-05T07:13:58.111Z,96869.47
2023-03-05T07:17:58.780Z,96864.59
2023-03-05T07:21:59.318Z,96861.63
2023-03-05T07:25:59.927Z,96854.16
2023-03-05T07:30:03.613Z,96851.56
2023-03-05T07:34:07.471Z,96847.47
2023-03-05T07:38:08.371Z,96844.34
2023-03-05T07:42:09.387Z,96850.31
2023-03-05T07:46:30.250Z,96842.03
2023-03-05T07:50:30.610Z,96842.66
2023-03-05T07:54:31.126Z,96835.09
2023-03-05T07:58:31.528Z,96833.88
2023-03-05T08:02:34.561Z,96836.50
2023-03-05T08:06:35.371Z,96840.41
2023-03-05T08:10:37.363Z,96839.59
2023-03-05T08:14:38.011Z,96834.97
2023-03-05T08:18:41.026Z,96837.56
2023-03-05T08:22:42.123Z,96832.47
2023-03-05T08:26:44.410Z,96829.31
2023-03-05T08:30:45.198Z,96830.69
2023-03-05T08:34:48.019Z,96832.56
2023-03-05T08:38:48.767Z,96822.25
2023-03-05T08:42:49.561Z,96826.09
2023-03-05T08:46:50.176Z,96820.97
2023-03-05T08:50:53.410Z,96820.22
2023-03-05T08:54:54.227Z,96819.84
2023-03-05T08:58:54.624Z,96820.63
2023-03-05T09:02:54.970Z,96816.16
2023-03-05T09:06:58.377Z,96815.09
2023-03-05T09:10:59.481Z,96805.72
2023-03-05T09:15:00.396Z,96801.59
2023-03-05T09:19:01.610Z,96802.88
2023-03-05T09:23:04.826Z,96803.25
2023-03-05T09:27:05.350Z,96801.59
2023-03-05T09:31:07.641Z,96797.53
2023-03-05T09:35:10.121Z,96793.56
2023-03-05T09:39:15.676Z,96797.41
2023-03-05T09:43:32.919Z,96782.66
2023-03-05T09:47:54.024Z,96787.50
2023-03-05T09:52:07.373Z,96782.66
2023-03-05T09:56:19.089Z,96758.75
2023-03-05T10:00:37.456Z,96788.91
2023-03-05T10:04:51.544Z,96787.47
2023-03-05T10:08:59.112Z,96781.38
2023-03-05T10:13:08.486Z,96785.38
2023-03-05T10:17:30.226Z,96777.94
2023-03-05T10:21:40.198Z,96768.00
2023-03-05T10:25:59.608Z,96773.25
2023-03-05T10:30:21.884Z,96764.31
2023-03-05T10:34:58.753Z,96772.78
2023-03-05T10:39:58.254Z,96763.50
2023-03-05T10:44:08.269Z,96756.25
2023-03-05T10:48:24.449Z,96759.53
2023-03-05T10:52:33.966Z,96749.97
2023-03-05T10:56:35.073Z,96741.19
2023-03-05T11:00:35.526Z,96739.81
2023-03-05T11:04:42.302Z,96711.19
2023-03-05T11:08:42.900Z,96739.16
2023-03-05T11:12:43.628Z,96734.41
2023-03-05T11:16:53.534Z,96724.56
2023-03-05T11:21:12.750Z,96722.00
2023-03-05T11:25:22.914Z,96720.75
2023-03-05T11:29:33.686Z,96712.13
2023-03-05T11:33:35.231Z,96697.75
2023-03-05T11:37:38.483Z,96696.19
2023-03-05T11:41:42.975Z,96702.88
2023-03-05T11:45:45.539Z,96688.94
2023-03-05T11:49:50.685Z,96686.72
2023-03-05T11:54:01.968Z,96684.88
2023-03-05T11:58:25.489Z,96667.13
2023-03-05T12:02:29.674Z,96670.75
2023-03-05T12:06:42.526Z,96664.50
2023-03-05T12:10:45.781Z,96661.47
2023-03-05T12:14:54.516Z,96659.25
2023-03-05T12:19:30.939Z,96644.09
2023-03-05T12:23:31.582Z,96642.06
2023-03-05T12:27:42.368Z,96638.78
2023-03-05T12:31:45.711Z,96631.34
2023-03-05T12:35:48.021Z,96618.66
2023-03-05T12:40:05.057Z,96624.28
2023-03-05T12:44:26.575Z,96618.81
2023-03-05T12:48:47.390Z,96618.97
2023-03-05T12:52:49.829Z,96610.41
2023-03-05T12:56:51.114Z,96608.22
2023-03-05T13:01:03.205Z,96604.78
2023-03-05T13:05:08.867Z,96603.84
2023-03-05T13:09:19.608Z,96598.25
2023-03-05T13:13:21.476Z,96583.94
2023-03-05T13:17:41.262Z,96587.09
2023-03-05T13:21:41.777Z,96581.75
2023-03-05T13:25:42.319Z,96583.00
2023-03-05T13:29:55.310Z,96572.13
2023-03-05T13:34:08.408Z,96579.78
2023-03-05T13:38:17.776Z,96579.06
2023-03-05T13:42:22.001Z,96568.97
2023-03-05T13:46:33.456Z,96566.13
2023-03-05T13:50:39.907Z,96564.94
2023-03-05T13:54:41.017Z,96561.50
2023-03-05T13:58:52.556Z,96527.78
2023-03-05T14:02:53.314Z,96558.09
2023-03-05T14:07:02.759Z,96545.97
2023-03-05T14:11:16.542Z,96540.72
2023-03-05T14:15:27.814Z,96535.88
2023-03-05T14:19:40.863Z,96531.00
2023-03-05T14:23:47.205Z,96519.72
2023-03-05T14:27:51.089Z,96520.94
2023-03-05T14:31:55.192Z,96523.56
2023-03-05T14:35:56.371Z,96511.66
2023-03-05T14:40:05.900Z,96502.78
2023-03-05T14:44:14.140Z,96484.19
2023-03-05T14:48:17.735Z,96497.31
2023-03-05T14:52:22.544Z,96493.00
2023-03-05T14:56:29.197Z,96491.03
2023-03-05T15:00:31.776Z,96480.78
2023-03-05T15:04:32.155Z,96491.88
2023-03-05T15:08:34.839Z,96485.63
2023-03-05T15:12:38.680Z,96479.56
2023-03-05T15:16:39.631Z,96487.25
2023-03-05T15:20:40.268Z,96479.78
2023-03-05T15:24:40.691Z,96476.94
2023-03-05T15:28:45.261Z,96462.03
2023-03-05T15:32:45.657Z,96470.09
2023-03-05T15:36:48.706Z,96460.81
2023-03-05T15:40:49.513Z,96461.81
2023-03-05T15:44:52.815Z,96457.19
2023-03-05T15:48:53.544Z,96460.00
2023-03-05T15:52:54.498Z,96452.13
2023-03-05T15:56:55.519Z,96444.66
2023-03-05T16:00:58.609Z,96425.72
2023-03-05T16:04:59.187Z,96428.53
2023-03-05T16:09:05.676Z,96421.28
2023-03-05T16:13:12.100Z,96425.72
2023-03-05T16:17:18.347Z,96424.13
2023-03-05T16:21:18.866Z,96420.47
2023-03-05T16:25:20.036Z,96417.22
2023-03-05T16:29:20.511Z,96405.31
2023-03-05T16:33:27.469Z,96411.38
2023-03-05T16:37:28.602Z,96413.19
2023-03-05T16:41:30.435Z,96413.19
2023-03-05T16:45:31.063Z,96411.16
2023-03-05T16:49:35.617Z,96408.13
2023-03-05T16:53:36.716Z,96409.94
2023-03-05T16:57:37.530Z,96407.69
2023-03-05T17:01:37.858Z,96388.97
2023-03-05T17:05:43.598Z,96392.34
2023-03-05T17:09:44.704Z,96400.63
2023-03-05T17:13:48.979Z,96407.09
2023-03-05T17:17:50.071Z,96405.66
2023-03-05T17:21:53.731Z,96401.41
2023-03-05T17:25:55.640Z,96404.22
2023-03-05T17:29:56.283Z,96396.97
2023-03-05T17:33:58.240Z,96409.00
2023-03-05T17:38:02.927Z,96408.63
2023-03-05T17:42:03.626Z,96398.19
2023-03-05T17:46:04.080Z,96408.25
2023-03-05T17:50:05.804Z,96409.03
2023-03-05T17:54:09.461Z,96417.28
2023-03-05T17:58:10.074Z,96407.34
2023-03-05T18:02:11.311Z,96414.44
2023-03-05T18:06:11.907Z,96402.53
2023-03-05T18:10:18.105Z,96401.53
2023-03-05T18:14:19.010Z,96400.16
2023-03-05T18:18:22.313Z,96403.38
2023-03-05T18:22:23.224Z,96400.53
2023-03-05T18:26:26.560Z,96406.78
2023-03-05T18:30:28.189Z,96397.31
2023-03-05T18:34:29.747Z,96395.28
2023-03-05T18:38:32.683Z,96396.84
2023-03-05T18:42:36.010Z,96390.81
2023-03-05T18:46:36.777Z,96383.63
2023-03-05T18:50:37.389Z,96375.91
2023-03-05T18:54:37.828Z,96388.00
2023-03-05T18:58:41.320Z,96384.97
2023-03-05T19:02:41.906Z,96377.13
2023-03-05T19:06:42.432Z,96384.97
2023-03-05T19:10:43.110Z,96377.50
2023-03-05T19:14:46.220Z,96380.75
2023-03-05T19:18:49.975Z,96381.16
2023-03-05T19:22:51.079Z,96379.13
2023-03-05T19:26:55.483Z,96368.69
2023-03-05T19:30:59.465Z,96366.66
2023-03-05T19:35:01.213Z,96365.44
2023-03-05T19:39:01.752Z,96357.97
2023-03-05T19:43:02.604Z,96370.31
2023-03-05T19:47:06.615Z,96359.03
2023-03-05T19:51:12.041Z,96369.88
2023-03-05T19:55:14.886Z,96365.66
2023-03-05T19:59:18.216Z,96321.75
2023-03-05T20:03:21.718Z,96345.34
2023-03-05T20:07:25.251Z,96342.94
2023-03-05T20:11:27.099Z,96330.00
2023-03-05T20:15:29.815Z,96324.75
2023-03-05T20:19:34.763Z,96330.38
2023-03-05T20:23:35.103Z,96338.03
2023-03-05T20:27:37.780Z,96315.47
2023-03-05T20:31:40.113Z,96331.63
2023-03-05T20:35:43.823Z,96330.38
2023-03-05T20:39:44.324Z,96334.78
2023-03-05T20:43:49.017Z,96323.47
2023-03-05T20:47:50.539Z,96324.72
2023-03-05T20:51:54.468Z,96314.66
2023-03-05T20:55:55.039Z,96320.09
2023-03-05T20:59:55.714Z,96319.44
2023-03-05T21:03:57.335Z,96303.34
2023-03-05T21:08:04.327Z,96304.91
2023-03-05T21:12:04.837Z,96309.63
2023-03-05T21:16:10.838Z,96300.97
2023-03-05T21:20:16.387Z,96307.78
2023-03-05T21:24:21.544Z,96299.75
2023-03-05T21:28:22.500Z,96294.53
2023-03-05T21:32:23.429Z,96293.72
2023-03-05T21:36:23.825Z,96289.69
2023-03-05T21:40:27.679Z,96288.13
2023-03-05T21:44:28.363Z,96273.59
2023-03-05T21:48:29.024Z,96278.41
2023-03-05T21:52:29.704Z,96271.59
2023-03-05T21:56:33.734Z,96264.97
2023-03-05T22:00:34.292Z,96266.53
2023-03-05T22:04:34.757Z,96261.13
2023-03-05T22:08:35.226Z,96257.47
2023-03-05T22:12:51.938Z,96250.22
2023-03-05T22:16:53.830Z,96247.63
2023-03-05T22:20:55.478Z,96239.00
2023-03-05T22:24:56.110Z,96240.78
2023-03-05T22:28:59.565Z,96233.34
2023-03-05T22:33:00.100Z,96233.94
2023-03-05T22:37:01.024Z,96211.59
2023-03-05T22:41:01.287Z,96218.09
2023-03-05T22:45:04.496Z,96216.47
2023-03-05T22:49:05.943Z,96220.47
2023-03-05T22:53:06.459Z,96210.63
2023-03-05T22:57:08.768Z,96204.78
2023-03-05T23:01:19.394Z,96202.78
2023-03-05T23:05:21.487Z,96201.38
2023-03-05T23:09:22.400Z,96191.13
2023-03-05T23:13:22.735Z,96199.94
2023-03-05T23:17:28.935Z,96189.50
2023-03-05T23:21:29.732Z,96196.31
2023-03-05T23:25:34.866Z,96184.06
2023-03-05T23:29:47.299Z,96189.88
2023-03-05T23:33:50.514Z,96190.28
2023-03-05T23:37:51.753Z,96179.38
2023-03-05T23:41:52.314Z,96188.22
2023-03-05T23:45:55.020Z,96173.94
2023-03-05T23:49:59.361Z,96179.38
2023-03-05T23:53:59.692Z,96164.91
2023-03-05T23:58:00.463Z,96168.19
